createdAt,value
2022-11-25T00:02:14.144Z,81.61
2022-11-25T00:12:17.084Z,81.45
2022-11-25T00:22:21.389Z,81.86
2022-11-25T00:32:24.589Z,81.10
2022-11-25T00:42:46.106Z,82.56
2022-11-25T00:52:49.133Z,83.24
2022-11-25T01:02:53.629Z,84.30
2022-11-25T01:12:56.999Z,85.00
2022-11-25T01:23:01.455Z,85.33
2022-11-25T01:33:04.489Z,84.91
2022-11-25T01:43:14.282Z,85.53
2022-11-25T01:53:20.381Z,85.09
2022-11-25T02:03:27.541Z,85.48
2022-11-25T02:13:30.908Z,85.23
2022-11-25T02:23:40.947Z,85.43
2022-11-25T02:33:47.078Z,84.68
2022-11-25T02:43:50.384Z,84.29
2022-11-25T02:53:57.654Z,84.41
2022-11-25T03:04:02.199Z,84.36
2022-11-25T03:14:07.099Z,84.25
2022-11-25T03:24:10.306Z,84.02
2022-11-25T03:34:14.691Z,83.27
2022-11-25T03:44:17.868Z,83.18
2022-11-25T03:54:22.863Z,83.07
2022-11-25T04:04:44.875Z,82.88
2022-11-25T04:14:49.482Z,82.36
2022-11-25T04:24:52.549Z,82.10
2022-11-25T04:35:02.127Z,82.70
2022-11-25T04:45:22.472Z,83.21
2022-11-25T04:55:29.214Z,85.28
2022-11-25T05:05:34.452Z,85.99
2022-11-25T05:15:38.796Z,85.96
2022-11-25T05:25:44.168Z,85.57
2022-11-25T05:36:05.183Z,86.57
2022-11-25T05:46:21.037Z,87.50
2022-11-25T05:56:29.608Z,87.22
2022-11-25T06:06:50.865Z,88.22
2022-11-25T06:16:55.454Z,88.75
2022-11-25T06:27:11.633Z,89.05
2022-11-25T06:37:17.108Z,89.36
2022-11-25T06:47:20.409Z,90.70
2022-11-25T06:57:24.825Z,91.02
2022-11-25T07:07:28.523Z,90.79
2022-11-25T07:17:33.454Z,90.85
2022-11-25T07:27:36.524Z,91.09
2022-11-25T07:37:40.843Z,91.02
2022-11-25T07:47:43.732Z,90.79
2022-11-25T07:57:47.817Z,90.90
2022-11-25T08:07:50.663Z,91.02
2022-11-25T08:17:55.204Z,90.94
2022-11-25T08:27:59.800Z,91.74
2022-11-25T08:38:03.990Z,90.96
2022-11-25T08:48:07.419Z,91.29
2022-11-25T08:58:13.306Z,91.29
2022-11-25T09:08:16.477Z,89.17
2022-11-25T09:18:25.964Z,88.72
2022-11-25T09:28:28.803Z,88.16
2022-11-25T09:38:34.147Z,86.54
2022-11-25T09:48:53.011Z,84.37
2022-11-25T09:59:02.766Z,82.85
2022-11-25T10:09:13.945Z,81.44
2022-11-25T10:19:27.389Z,81.18
2022-11-25T10:29:31.889Z,79.37
2022-11-25T10:39:36.551Z,78.32
2022-11-25T10:49:46.739Z,74.71
2022-11-25T10:59:59.011Z,72.98
2022-11-25T11:10:19.256Z,72.75
2022-11-25T11:20:26.015Z,72.60
2022-11-25T11:30:31.028Z,72.50
2022-11-25T11:40:40.140Z,72.23
2022-11-25T11:50:48.442Z,71.20
2022-11-25T12:01:05.613Z,69.49
2022-11-25T12:11:15.924Z,69.25
2022-11-25T12:21:41.873Z,70.24
2022-11-25T12:31:51.486Z,70.97
2022-11-25T12:42:01.052Z,71.36
2022-11-25T12:52:28.871Z,72.85
2022-11-25T13:10:55.632Z,71.24
2022-11-25T13:13:48.795Z,68.31
2022-11-25T13:23:56.425Z,66.24
2022-11-25T13:34:27.296Z,65.71
2022-11-25T13:44:35.498Z,66.42
2022-11-25T13:54:45.585Z,66.57
2022-11-25T14:05:00.326Z,67.57
2022-11-25T14:15:33.815Z,67.02
2022-11-25T14:25:50.477Z,67.29
2022-11-25T14:35:59.668Z,67.06
2022-11-25T14:46:15.698Z,67.41
2022-11-25T14:56:24.613Z,68.12
2022-11-25T15:06:35.393Z,68.59
2022-11-25T15:16:41.555Z,69.27
2022-11-25T15:26:52.316Z,69.57
2022-11-25T15:36:55.361Z,70.09
2022-11-25T15:47:05.185Z,71.21
2022-11-25T15:57:18.624Z,71.31
2022-11-25T16:07:24.800Z,71.41
2022-11-25T16:17:28.833Z,71.69
2022-11-25T16:27:38.206Z,72.15
2022-11-25T16:37:47.083Z,72.31
2022-11-25T16:47:53.626Z,72.73
2022-11-25T16:57:56.415Z,71.98
2022-11-25T17:08:00.598Z,72.31
2022-11-25T17:18:05.288Z,73.44
2022-11-25T17:28:15.652Z,78.88
2022-11-25T17:38:20.825Z,80.45
2022-11-25T17:48:25.658Z,80.97
2022-11-25T17:58:28.838Z,81.53
2022-11-25T18:08:33.191Z,81.91
2022-11-25T18:18:36.040Z,80.88
2022-11-25T18:28:40.319Z,80.00
2022-11-25T18:38:43.043Z,79.15
2022-11-25T18:48:47.338Z,79.49
2022-11-25T18:58:51.713Z,79.44
2022-11-25T19:08:55.927Z,80.70
2022-11-25T19:18:58.633Z,80.53
2022-11-25T19:29:08.044Z,80.90
2022-11-25T19:39:17.869Z,80.00
2022-11-25T19:49:22.907Z,79.42
2022-11-25T19:59:25.960Z,80.43
2022-11-25T20:09:30.353Z,80.60
2022-11-25T20:19:33.455Z,80.05
2022-11-25T20:29:37.799Z,80.02
2022-11-25T20:39:40.851Z,81.25
2022-11-25T20:49:46.434Z,81.49
2022-11-25T20:59:49.620Z,81.85
2022-11-25T21:09:54.275Z,82.11
2022-11-25T21:20:06.391Z,82.45
2022-11-25T21:30:18.418Z,83.27
2022-11-25T21:40:41.605Z,82.00
2022-11-25T21:50:44.472Z,80.58
2022-11-25T22:00:51.516Z,80.76
2022-11-25T22:10:56.699Z,80.51
2022-11-25T22:21:01.061Z,79.94
2022-11-25T22:31:08.026Z,80.22
2022-11-25T22:41:12.723Z,80.11
2022-11-25T22:51:18.756Z,79.95
2022-11-25T23:01:23.494Z,79.73
2022-11-25T23:11:27.417Z,79.93
2022-11-25T23:21:32.280Z,79.75
2022-11-25T23:31:36.482Z,79.46
2022-11-25T23:41:40.762Z,79.75
2022-11-25T23:51:43.607Z,79.29
